Pagrindinis puslapis
METAR-TAF:

METAR-TAF

Oro uostai :

Velykų sala, Čilė

platuma: 27-09S, ilguma: 109-25W, Aukštis: 51 m

Dabartinis oras

Ataskaita buvo paskelbta 1 valandą ir 10 minutes, ne 02:00 UTC
Vėjas 11 kt iš Pietryčių
Temperatūra 17°C
Drėgmė 82%
Slėgis 1032 hPa
Matomumas 10 km arba daugiau
Mažai debesys ne aukštis 2500 ft
Su prošvaistėmis ne aukštis 4500 ft

METAR: SCIP 060200Z 13011KT 9999 FEW025 BKN045 17/14 Q1032 NOSIG

Laikas: 21:10 (03:10 UTC)

Prognozė

Ataskaita buvo paskelbta 5 valandos ir 23 minutes, ne 21:47 UTC
Prognozė galioja nuo 06 metu 00 UTC su 07 metu 00 UTC
Vėjas 12 kt iš Rytų/Pietryčių
Matomumas 10 km arba daugiau
Išsisklaidę debesys ne aukštis 3000 ft
Išsisklaidę debesys ne aukštis 5000 ft
Laikinai
nuo 06 metu 13 UTC su 06 metu 21 UTC
Matomumas: 5000 m
Išsisklaidę debesys ne aukštis 1500 ft
Su prošvaistėmis ne aukštis 2500 ft
lietus

TAF: SCIP 052147Z 0600/0700 12012KT 9999 SCT030 SCT050 TX21/0619Z TN15/0607Z TEMPO 0613/0621 5000 -SHRA SCT015 BKN025

Orai ataskaitas ir orų prognozės (METAR, TAF).

turimą stotys yra geltonos ir raudonos taškus žemėlapyje.

Perkelti pele per norėdami pamatyti stoties vardą.

Tada spustelėkite, norėdami matyti oro stebėjimo ir prognozės.

Norėdami pakeisti žemėlapį: spustelėkite ant žalios mygtukų su juodo kryžiaus žemyn,; žalią mygtuką su brūkšneliu, jei norite nutolinti; arba žalių rodyklių gretimoms žemėlapius.


METAR-TAF: